Terminal Aerodrome Forecast
Issued by NWS

Home | Current Version | Previous Version | Text Only | Print | Product List | Glossary Off
Versions: 1 2 3 4 5 6 7 8 9 10 11 12 13

274
FTUS42 KMHX 251739
TAFISO
TAF
KISO 251739Z 2518/2618 VRB04KT P6SM SCT025 BKN050
     FM260800 VRB03KT 5SM BR SCT050 BKN120
     FM261300 02005KT P6SM SCT050 BKN120
      AMD LTD TO CLD VIS AND WIND=

USA.gov is the U.S. government's official web portal to all federal, state and local government web resources and services.